sensor_id;sensor_type;location;lat;lon;timestamp;temperature;humidity
32394;DHT22;18853;45.426;9.206;2023-06-14T00:01:45;27.50;53.10
32394;DHT22;18853;45.426;9.206;2023-06-14T00:04:12;27.40;53.30
32394;DHT22;18853;45.426;9.206;2023-06-14T00:06:38;27.40;53.50
32394;DHT22;18853;45.426;9.206;2023-06-14T00:09:04;27.30;53.40
32394;DHT22;18853;45.426;9.206;2023-06-14T00:11:31;27.30;53.50
32394;DHT22;18853;45.426;9.206;2023-06-14T00:13:57;27.30;53.60
32394;DHT22;18853;45.426;9.206;2023-06-14T00:16:23;27.30;53.60
32394;DHT22;18853;45.426;9.206;2023-06-14T00:18:49;27.30;53.60
32394;DHT22;18853;45.426;9.206;2023-06-14T00:21:17;27.20;53.70
32394;DHT22;18853;45.426;9.206;2023-06-14T00:23:43;27.20;53.70
32394;DHT22;18853;45.426;9.206;2023-06-14T00:26:08;27.20;53.70
32394;DHT22;18853;45.426;9.206;2023-06-14T00:28:34;27.20;53.80
32394;DHT22;18853;45.426;9.206;2023-06-14T00:31:00;27.10;54.30
32394;DHT22;18853;45.426;9.206;2023-06-14T00:33:25;27.10;54.30
32394;DHT22;18853;45.426;9.206;2023-06-14T00:35:51;27.00;55.40
32394;DHT22;18853;45.426;9.206;2023-06-14T00:38:19;26.80;56.00
32394;DHT22;18853;45.426;9.206;2023-06-14T00:40:45;26.50;56.10
32394;DHT22;18853;45.426;9.206;2023-06-14T00:43:11;26.30;56.20
32394;DHT22;18853;45.426;9.206;2023-06-14T00:45:37;26.30;56.50
32394;DHT22;18853;45.426;9.206;2023-06-14T00:48:03;26.20;56.80
32394;DHT22;18853;45.426;9.206;2023-06-14T00:50:31;26.10;57.40
32394;DHT22;18853;45.426;9.206;2023-06-14T00:52:59;25.90;57.50
32394;DHT22;18853;45.426;9.206;2023-06-14T00:55:26;25.70;57.70
32394;DHT22;18853;45.426;9.206;2023-06-14T00:57:53;25.70;58.00
32394;DHT22;18853;45.426;9.206;2023-06-14T01:00:19;25.70;58.60
32394;DHT22;18853;45.426;9.206;2023-06-14T01:02:44;25.60;58.80
32394;DHT22;18853;45.426;9.206;2023-06-14T01:05:10;25.60;58.90
32394;DHT22;18853;45.426;9.206;2023-06-14T01:08:35;25.60;59.20
32394;DHT22;18853;45.426;9.206;2023-06-14T01:10:50;25.60;59.50
32394;DHT22;18853;45.426;9.206;2023-06-14T01:13:32;25.60;60.50
32394;DHT22;18853;45.426;9.206;2023-06-14T01:15:59;25.50;59.10
32394;DHT22;18853;45.426;9.206;2023-06-14T01:18:24;25.50;59.20
32394;DHT22;18853;45.426;9.206;2023-06-14T01:20:52;25.50;59.10
32394;DHT22;18853;45.426;9.206;2023-06-14T01:23:21;25.50;58.90
32394;DHT22;18853;45.426;9.206;2023-06-14T01:25:48;25.50;58.80
32394;DHT22;18853;45.426;9.206;2023-06-14T01:28:18;25.50;59.30
32394;DHT22;18853;45.426;9.206;2023-06-14T01:30:50;25.50;58.70
32394;DHT22;18853;45.426;9.206;2023-06-14T01:33:22;25.40;58.90
32394;DHT22;18853;45.426;9.206;2023-06-14T01:35:50;25.40;58.90
32394;DHT22;18853;45.426;9.206;2023-06-14T01:38:17;25.30;59.10
32394;DHT22;18853;45.426;9.206;2023-06-14T01:40:45;25.40;59.40
32394;DHT22;18853;45.426;9.206;2023-06-14T01:43:13;25.40;59.20
32394;DHT22;18853;45.426;9.206;2023-06-14T01:45:43;25.40;59.30
32394;DHT22;18853;45.426;9.206;2023-06-14T01:48:09;25.40;59.60
32394;DHT22;18853;45.426;9.206;2023-06-14T01:50:35;25.30;59.00
32394;DHT22;18853;45.426;9.206;2023-06-14T01:53:01;25.30;59.40
32394;DHT22;18853;45.426;9.206;2023-06-14T01:55:27;25.30;59.30
32394;DHT22;18853;45.426;9.206;2023-06-14T01:57:53;25.30;59.40
32394;DHT22;18853;45.426;9.206;2023-06-14T02:00:19;25.30;59.80
32394;DHT22;18853;45.426;9.206;2023-06-14T02:02:46;25.30;59.90
32394;DHT22;18853;45.426;9.206;2023-06-14T02:05:12;25.30;59.90
32394;DHT22;18853;45.426;9.206;2023-06-14T02:07:38;25.30;59.90
32394;DHT22;18853;45.426;9.206;2023-06-14T02:10:04;25.20;59.90
32394;DHT22;18853;45.426;9.206;2023-06-14T02:12:30;25.30;59.80
32394;DHT22;18853;45.426;9.206;2023-06-14T02:14:56;25.20;59.40
32394;DHT22;18853;45.426;9.206;2023-06-14T02:17:23;25.20;59.30
32394;DHT22;18853;45.426;9.206;2023-06-14T02:19:50;25.20;59.30
32394;DHT22;18853;45.426;9.206;2023-06-14T02:22:16;25.10;59.50
32394;DHT22;18853;45.426;9.206;2023-06-14T02:24:42;25.10;59.30
32394;DHT22;18853;45.426;9.206;2023-06-14T02:27:08;25.10;58.90
32394;DHT22;18853;45.426;9.206;2023-06-14T02:29:36;25.00;58.80
32394;DHT22;18853;45.426;9.206;2023-06-14T02:32:03;25.00;58.50
32394;DHT22;18853;45.426;9.206;2023-06-14T02:34:29;25.00;58.80
32394;DHT22;18853;45.426;9.206;2023-06-14T02:36:55;25.00;58.90
32394;DHT22;18853;45.426;9.206;2023-06-14T02:39:21;25.00;58.70
32394;DHT22;18853;45.426;9.206;2023-06-14T02:41:49;25.00;59.50
32394;DHT22;18853;45.426;9.206;2023-06-14T02:44:17;24.90;58.60
32394;DHT22;18853;45.426;9.206;2023-06-14T02:46:43;24.90;58.80
32394;DHT22;18853;45.426;9.206;2023-06-14T02:49:09;24.90;58.90
32394;DHT22;18853;45.426;9.206;2023-06-14T02:51:35;24.90;58.80
32394;DHT22;18853;45.426;9.206;2023-06-14T02:54:01;24.90;58.20
32394;DHT22;18853;45.426;9.206;2023-06-14T02:56:27;24.90;58.10
32394;DHT22;18853;45.426;9.206;2023-06-14T02:58:53;24.80;57.90
32394;DHT22;18853;45.426;9.206;2023-06-14T03:01:19;24.80;58.30
32394;DHT22;18853;45.426;9.206;2023-06-14T03:03:46;24.80;58.80
32394;DHT22;18853;45.426;9.206;2023-06-14T03:06:11;24.80;59.00
32394;DHT22;18853;45.426;9.206;2023-06-14T03:08:40;24.70;58.60
32394;DHT22;18853;45.426;9.206;2023-06-14T03:11:07;24.70;58.40
32394;DHT22;18853;45.426;9.206;2023-06-14T03:13:34;24.60;59.00
32394;DHT22;18853;45.426;9.206;2023-06-14T03:16:00;24.70;59.00
32394;DHT22;18853;45.426;9.206;2023-06-14T03:18:30;24.60;58.80
32394;DHT22;18853;45.426;9.206;2023-06-14T03:20:56;24.60;58.90
32394;DHT22;18853;45.426;9.206;2023-06-14T03:23:24;24.60;59.30
32394;DHT22;18853;45.426;9.206;2023-06-14T03:25:50;24.60;59.40
32394;DHT22;18853;45.426;9.206;2023-06-14T03:28:17;24.60;59.30
32394;DHT22;18853;45.426;9.206;2023-06-14T03:30:42;24.60;59.70
32394;DHT22;18853;45.426;9.206;2023-06-14T03:33:08;24.60;59.50
32394;DHT22;18853;45.426;9.206;2023-06-14T03:35:34;24.50;59.40
32394;DHT22;18853;45.426;9.206;2023-06-14T03:38:00;24.50;59.40
32394;DHT22;18853;45.426;9.206;2023-06-14T03:40:27;24.50;59.30
32394;DHT22;18853;45.426;9.206;2023-06-14T03:42:56;24.50;59.30
32394;DHT22;18853;45.426;9.206;2023-06-14T03:45:22;24.50;59.30
32394;DHT22;18853;45.426;9.206;2023-06-14T03:47:47;24.50;59.60
32394;DHT22;18853;45.426;9.206;2023-06-14T03:50:13;24.50;59.80
32394;DHT22;18853;45.426;9.206;2023-06-14T03:52:39;24.50;59.60
32394;DHT22;18853;45.426;9.206;2023-06-14T03:55:05;24.40;60.00
32394;DHT22;18853;45.426;9.206;2023-06-14T03:57:31;24.40;59.80
32394;DHT22;18853;45.426;9.206;2023-06-14T03:59:57;24.50;59.70
32394;DHT22;18853;45.426;9.206;2023-06-14T04:02:22;24.40;59.80
32394;DHT22;18853;45.426;9.206;2023-06-14T04:04:49;24.40;59.80
32394;DHT22;18853;45.426;9.206;2023-06-14T04:07:15;24.40;59.80
32394;DHT22;18853;45.426;9.206;2023-06-14T04:09:45;24.40;59.80
32394;DHT22;18853;45.426;9.206;2023-06-14T04:12:11;24.30;59.70
32394;DHT22;18853;45.426;9.206;2023-06-14T04:14:40;24.40;60.10
32394;DHT22;18853;45.426;9.206;2023-06-14T04:17:06;24.40;60.00
32394;DHT22;18853;45.426;9.206;2023-06-14T04:19:32;24.40;60.20
32394;DHT22;18853;45.426;9.206;2023-06-14T04:21:58;24.40;60.30
32394;DHT22;18853;45.426;9.206;2023-06-14T04:24:26;24.40;60.00
32394;DHT22;18853;45.426;9.206;2023-06-14T04:27:00;24.30;59.60
32394;DHT22;18853;45.426;9.206;2023-06-14T04:29:27;24.30;59.60
32394;DHT22;18853;45.426;9.206;2023-06-14T04:31:56;24.40;59.50
32394;DHT22;18853;45.426;9.206;2023-06-14T04:34:26;24.30;59.50
32394;DHT22;18853;45.426;9.206;2023-06-14T04:36:55;24.30;59.50
32394;DHT22;18853;45.426;9.206;2023-06-14T04:39:22;24.30;59.80
32394;DHT22;18853;45.426;9.206;2023-06-14T04:41:48;24.30;59.70
32394;DHT22;18853;45.426;9.206;2023-06-14T04:44:19;24.30;59.60
32394;DHT22;18853;45.426;9.206;2023-06-14T04:46:46;24.30;59.50
32394;DHT22;18853;45.426;9.206;2023-06-14T04:49:13;24.30;59.90
32394;DHT22;18853;45.426;9.206;2023-06-14T04:51:41;24.30;60.30
32394;DHT22;18853;45.426;9.206;2023-06-14T04:54:08;24.30;60.60
32394;DHT22;18853;45.426;9.206;2023-06-14T04:56:41;24.30;60.00
32394;DHT22;18853;45.426;9.206;2023-06-14T04:59:10;24.20;60.00
32394;DHT22;18853;45.426;9.206;2023-06-14T05:01:40;24.20;60.30
32394;DHT22;18853;45.426;9.206;2023-06-14T05:04:06;24.20;60.70
32394;DHT22;18853;45.426;9.206;2023-06-14T05:06:32;24.20;61.00
32394;DHT22;18853;45.426;9.206;2023-06-14T05:08:58;24.20;61.30
32394;DHT22;18853;45.426;9.206;2023-06-14T05:11:24;24.20;61.50
32394;DHT22;18853;45.426;9.206;2023-06-14T05:13:50;24.20;61.30
32394;DHT22;18853;45.426;9.206;2023-06-14T05:16:16;24.20;61.10
32394;DHT22;18853;45.426;9.206;2023-06-14T05:18:45;24.20;60.90
32394;DHT22;18853;45.426;9.206;2023-06-14T05:21:12;24.10;61.10
32394;DHT22;18853;45.426;9.206;2023-06-14T05:23:38;24.20;61.60
32394;DHT22;18853;45.426;9.206;2023-06-14T05:26:04;24.20;61.60
32394;DHT22;18853;45.426;9.206;2023-06-14T05:28:30;24.20;61.60
32394;DHT22;18853;45.426;9.206;2023-06-14T05:30:56;24.20;61.10
32394;DHT22;18853;45.426;9.206;2023-06-14T05:33:22;24.20;61.10
32394;DHT22;18853;45.426;9.206;2023-06-14T05:35:48;24.20;61.20
32394;DHT22;18853;45.426;9.206;2023-06-14T05:38:13;24.20;61.50
32394;DHT22;18853;45.426;9.206;2023-06-14T05:40:39;24.20;61.30
32394;DHT22;18853;45.426;9.206;2023-06-14T05:43:05;24.20;61.40
32394;DHT22;18853;45.426;9.206;2023-06-14T05:45:31;24.20;61.00
32394;DHT22;18853;45.426;9.206;2023-06-14T05:47:56;24.20;61.00
32394;DHT22;18853;45.426;9.206;2023-06-14T05:50:22;24.20;61.30
32394;DHT22;18853;45.426;9.206;2023-06-14T05:52:48;24.20;61.50
32394;DHT22;18853;45.426;9.206;2023-06-14T05:55:15;24.20;61.70
32394;DHT22;18853;45.426;9.206;2023-06-14T05:57:41;24.30;61.90
32394;DHT22;18853;45.426;9.206;2023-06-14T06:00:08;24.40;61.70
32394;DHT22;18853;45.426;9.206;2023-06-14T06:02:40;24.50;62.00
32394;DHT22;18853;45.426;9.206;2023-06-14T06:05:08;24.80;61.40
32394;DHT22;18853;45.426;9.206;2023-06-14T06:07:34;25.00;60.60
32394;DHT22;18853;45.426;9.206;2023-06-14T06:10:00;25.20;60.00
32394;DHT22;18853;45.426;9.206;2023-06-14T06:12:25;25.30;59.60
32394;DHT22;18853;45.426;9.206;2023-06-14T06:14:51;25.50;59.30
32394;DHT22;18853;45.426;9.206;2023-06-14T06:17:17;25.60;59.00
32394;DHT22;18853;45.426;9.206;2023-06-14T06:19:42;25.70;58.70
32394;DHT22;18853;45.426;9.206;2023-06-14T06:22:08;25.70;58.50
32394;DHT22;18853;45.426;9.206;2023-06-14T06:24:34;25.80;58.40
32394;DHT22;18853;45.426;9.206;2023-06-14T06:26:59;25.80;58.20
32394;DHT22;18853;45.426;9.206;2023-06-14T06:29:27;25.90;58.10
32394;DHT22;18853;45.426;9.206;2023-06-14T06:31:53;25.90;58.10
32394;DHT22;18853;45.426;9.206;2023-06-14T06:34:18;25.90;57.90
32394;DHT22;18853;45.426;9.206;2023-06-14T06:36:44;25.90;57.90
32394;DHT22;18853;45.426;9.206;2023-06-14T06:39:10;26.00;57.90
32394;DHT22;18853;45.426;9.206;2023-06-14T06:41:37;26.00;57.90
32394;DHT22;18853;45.426;9.206;2023-06-14T06:44:05;26.00;57.80
32394;DHT22;18853;45.426;9.206;2023-06-14T06:46:32;26.00;58.40
32394;DHT22;18853;45.426;9.206;2023-06-14T06:48:58;26.00;57.80
32394;DHT22;18853;45.426;9.206;2023-06-14T06:51:24;26.10;57.80
32394;DHT22;18853;45.426;9.206;2023-06-14T06:53:55;26.00;57.60
32394;DHT22;18853;45.426;9.206;2023-06-14T06:56:21;26.00;57.60
32394;DHT22;18853;45.426;9.206;2023-06-14T06:58:52;26.10;57.60
32394;DHT22;18853;45.426;9.206;2023-06-14T07:01:18;26.10;57.50
32394;DHT22;18853;45.426;9.206;2023-06-14T07:03:46;26.10;57.40
32394;DHT22;18853;45.426;9.206;2023-06-14T07:06:12;26.10;57.50
32394;DHT22;18853;45.426;9.206;2023-06-14T07:08:38;26.20;57.40
32394;DHT22;18853;45.426;9.206;2023-06-14T07:11:06;26.20;57.40
32394;DHT22;18853;45.426;9.206;2023-06-14T07:13:32;26.20;57.40
32394;DHT22;18853;45.426;9.206;2023-06-14T07:15:59;26.20;57.40
32394;DHT22;18853;45.426;9.206;2023-06-14T07:18:26;26.20;57.40
32394;DHT22;18853;45.426;9.206;2023-06-14T07:20:53;26.30;57.60
32394;DHT22;18853;45.426;9.206;2023-06-14T07:23:22;26.30;57.60
32394;DHT22;18853;45.426;9.206;2023-06-14T07:25:48;26.30;57.60
32394;DHT22;18853;45.426;9.206;2023-06-14T07:28:14;26.30;57.70
32394;DHT22;18853;45.426;9.206;2023-06-14T07:30:39;26.30;57.60
32394;DHT22;18853;45.426;9.206;2023-06-14T07:33:05;26.30;57.50
32394;DHT22;18853;45.426;9.206;2023-06-14T07:35:31;26.30;57.40
32394;DHT22;18853;45.426;9.206;2023-06-14T07:37:57;26.30;57.30
32394;DHT22;18853;45.426;9.206;2023-06-14T07:40:22;26.30;57.20
32394;DHT22;18853;45.426;9.206;2023-06-14T07:42:48;26.30;57.20
32394;DHT22;18853;45.426;9.206;2023-06-14T07:45:16;26.30;57.20
32394;DHT22;18853;45.426;9.206;2023-06-14T07:47:41;26.30;57.10
32394;DHT22;18853;45.426;9.206;2023-06-14T07:50:08;26.30;57.10
32394;DHT22;18853;45.426;9.206;2023-06-14T07:52:34;26.30;57.00
32394;DHT22;18853;45.426;9.206;2023-06-14T07:55:00;26.30;57.00
32394;DHT22;18853;45.426;9.206;2023-06-14T07:57:25;26.30;56.90
32394;DHT22;18853;45.426;9.206;2023-06-14T07:59:51;26.30;56.80
32394;DHT22;18853;45.426;9.206;2023-06-14T08:02:18;26.30;56.70
32394;DHT22;18853;45.426;9.206;2023-06-14T08:04:44;26.30;56.60
32394;DHT22;18853;45.426;9.206;2023-06-14T08:07:09;26.30;56.60
32394;DHT22;18853;45.426;9.206;2023-06-14T08:09:36;26.30;56.60
32394;DHT22;18853;45.426;9.206;2023-06-14T08:12:07;26.40;56.70
32394;DHT22;18853;45.426;9.206;2023-06-14T08:14:35;26.40;56.70
32394;DHT22;18853;45.426;9.206;2023-06-14T08:17:01;26.40;56.70
32394;DHT22;18853;45.426;9.206;2023-06-14T08:19:27;26.40;56.80
32394;DHT22;18853;45.426;9.206;2023-06-14T08:21:53;26.40;56.60
32394;DHT22;18853;45.426;9.206;2023-06-14T08:24:23;26.40;56.60
32394;DHT22;18853;45.426;9.206;2023-06-14T08:26:54;26.50;56.50
32394;DHT22;18853;45.426;9.206;2023-06-14T08:29:21;26.50;56.30
32394;DHT22;18853;45.426;9.206;2023-06-14T08:31:47;26.50;56.00
32394;DHT22;18853;45.426;9.206;2023-06-14T08:34:13;26.60;55.90
32394;DHT22;18853;45.426;9.206;2023-06-14T08:36:39;26.60;55.70
32394;DHT22;18853;45.426;9.206;2023-06-14T08:39:05;26.70;55.60
32394;DHT22;18853;45.426;9.206;2023-06-14T08:41:31;26.70;55.40
32394;DHT22;18853;45.426;9.206;2023-06-14T08:43:58;26.70;55.20
32394;DHT22;18853;45.426;9.206;2023-06-14T08:46:25;26.70;55.10
32394;DHT22;18853;45.426;9.206;2023-06-14T08:48:55;26.70;55.10
32394;DHT22;18853;45.426;9.206;2023-06-14T08:51:25;26.70;54.90
32394;DHT22;18853;45.426;9.206;2023-06-14T08:53:54;26.70;54.90
32394;DHT22;18853;45.426;9.206;2023-06-14T08:56:30;26.80;54.80
32394;DHT22;18853;45.426;9.206;2023-06-14T08:58:57;26.80;54.70
32394;DHT22;18853;45.426;9.206;2023-06-14T09:01:23;26.70;55.30
32394;DHT22;18853;45.426;9.206;2023-06-14T09:03:50;26.80;54.80
32394;DHT22;18853;45.426;9.206;2023-06-14T09:06:17;26.80;54.70
32394;DHT22;18853;45.426;9.206;2023-06-14T09:08:46;26.80;54.70
32394;DHT22;18853;45.426;9.206;2023-06-14T09:11:13;26.80;54.70
32394;DHT22;18853;45.426;9.206;2023-06-14T09:13:40;26.80;54.70
32394;DHT22;18853;45.426;9.206;2023-06-14T09:16:07;26.90;54.80
32394;DHT22;18853;45.426;9.206;2023-06-14T09:18:39;26.90;54.70
32394;DHT22;18853;45.426;9.206;2023-06-14T09:21:07;26.90;54.60
32394;DHT22;18853;45.426;9.206;2023-06-14T09:23:40;26.90;54.70
32394;DHT22;18853;45.426;9.206;2023-06-14T09:26:11;27.00;54.60
32394;DHT22;18853;45.426;9.206;2023-06-14T09:28:41;27.00;54.70
32394;DHT22;18853;45.426;9.206;2023-06-14T09:31:07;27.00;54.60
32394;DHT22;18853;45.426;9.206;2023-06-14T09:33:35;27.00;54.70
32394;DHT22;18853;45.426;9.206;2023-06-14T09:36:01;27.00;54.70
32394;DHT22;18853;45.426;9.206;2023-06-14T09:38:26;27.10;54.70
32394;DHT22;18853;45.426;9.206;2023-06-14T09:40:52;27.00;54.70
32394;DHT22;18853;45.426;9.206;2023-06-14T09:43:18;27.10;54.70
32394;DHT22;18853;45.426;9.206;2023-06-14T09:45:45;27.10;54.70
32394;DHT22;18853;45.426;9.206;2023-06-14T09:48:14;27.10;54.70
32394;DHT22;18853;45.426;9.206;2023-06-14T09:50:45;27.10;54.70
32394;DHT22;18853;45.426;9.206;2023-06-14T09:53:12;27.10;54.70
32394;DHT22;18853;45.426;9.206;2023-06-14T09:55:40;27.10;54.60
32394;DHT22;18853;45.426;9.206;2023-06-14T09:58:08;27.10;54.50
32394;DHT22;18853;45.426;9.206;2023-06-14T10:00:36;27.20;54.60
32394;DHT22;18853;45.426;9.206;2023-06-14T10:03:13;27.10;54.60
32394;DHT22;18853;45.426;9.206;2023-06-14T10:05:43;27.20;54.60
32394;DHT22;18853;45.426;9.206;2023-06-14T10:08:11;27.20;54.60
32394;DHT22;18853;45.426;9.206;2023-06-14T10:10:39;27.20;54.70
32394;DHT22;18853;45.426;9.206;2023-06-14T10:13:06;27.20;53.80
32394;DHT22;18853;45.426;9.206;2023-06-14T10:24:44;27.00;53.40
32394;DHT22;18853;45.426;9.206;2023-06-14T10:27:13;27.00;53.90
32394;DHT22;18853;45.426;9.206;2023-06-14T10:32:24;27.10;54.30
32394;DHT22;18853;45.426;9.206;2023-06-14T10:34:58;27.10;54.40
32394;DHT22;18853;45.426;9.206;2023-06-14T10:37:24;27.10;54.10
32394;DHT22;18853;45.426;9.206;2023-06-14T10:39:50;27.10;54.10
32394;DHT22;18853;45.426;9.206;2023-06-14T10:42:17;27.10;53.90
32394;DHT22;18853;45.426;9.206;2023-06-14T10:44:52;27.20;54.00
32394;DHT22;18853;45.426;9.206;2023-06-14T10:49:52;27.30;53.90
32394;DHT22;18853;45.426;9.206;2023-06-14T10:52:22;27.30;53.70
32394;DHT22;18853;45.426;9.206;2023-06-14T10:55:08;27.30;53.50
32394;DHT22;18853;45.426;9.206;2023-06-14T10:57:39;27.40;53.50
32394;DHT22;18853;45.426;9.206;2023-06-14T11:00:06;27.30;53.50
32394;DHT22;18853;45.426;9.206;2023-06-14T11:05:29;27.40;53.10
32394;DHT22;18853;45.426;9.206;2023-06-14T11:10:36;27.40;52.90
32394;DHT22;18853;45.426;9.206;2023-06-14T11:13:03;27.40;53.10
32394;DHT22;18853;45.426;9.206;2023-06-14T11:15:30;27.40;53.00
32394;DHT22;18853;45.426;9.206;2023-06-14T11:17:56;27.40;53.00
32394;DHT22;18853;45.426;9.206;2023-06-14T11:20:26;27.40;52.70
32394;DHT22;18853;45.426;9.206;2023-06-14T11:22:53;27.50;52.40
32394;DHT22;18853;45.426;9.206;2023-06-14T11:25:19;27.50;52.40
32394;DHT22;18853;45.426;9.206;2023-06-14T11:27:45;27.50;52.10
32394;DHT22;18853;45.426;9.206;2023-06-14T11:30:12;27.50;51.80
32394;DHT22;18853;45.426;9.206;2023-06-14T11:32:39;27.50;52.10
32394;DHT22;18853;45.426;9.206;2023-06-14T11:35:05;27.50;52.40
32394;DHT22;18853;45.426;9.206;2023-06-14T11:37:31;27.60;51.10
32394;DHT22;18853;45.426;9.206;2023-06-14T11:40:01;27.60;50.60
32394;DHT22;18853;45.426;9.206;2023-06-14T11:42:29;27.60;51.10
32394;DHT22;18853;45.426;9.206;2023-06-14T11:44:55;27.60;51.80
32394;DHT22;18853;45.426;9.206;2023-06-14T11:47:22;27.60;51.80
32394;DHT22;18853;45.426;9.206;2023-06-14T11:49:48;27.60;51.70
32394;DHT22;18853;45.426;9.206;2023-06-14T11:52:14;27.70;50.70
32394;DHT22;18853;45.426;9.206;2023-06-14T11:54:40;27.70;51.20
32394;DHT22;18853;45.426;9.206;2023-06-14T11:57:09;27.70;49.70
32394;DHT22;18853;45.426;9.206;2023-06-14T11:59:40;27.70;50.10
32394;DHT22;18853;45.426;9.206;2023-06-14T12:02:07;27.80;51.00
32394;DHT22;18853;45.426;9.206;2023-06-14T12:04:33;27.90;51.10
32394;DHT22;18853;45.426;9.206;2023-06-14T12:07:15;27.90;50.60
32394;DHT22;18853;45.426;9.206;2023-06-14T12:12:28;28.00;49.70
32394;DHT22;18853;45.426;9.206;2023-06-14T12:14:57;28.10;49.30
32394;DHT22;18853;45.426;9.206;2023-06-14T12:17:22;28.20;49.10
32394;DHT22;18853;45.426;9.206;2023-06-14T12:19:49;28.20;48.80
32394;DHT22;18853;45.426;9.206;2023-06-14T12:22:16;28.10;49.10
32394;DHT22;18853;45.426;9.206;2023-06-14T12:24:45;28.20;48.40
32394;DHT22;18853;45.426;9.206;2023-06-14T12:27:12;28.20;48.20
32394;DHT22;18853;45.426;9.206;2023-06-14T12:29:41;28.30;48.30
32394;DHT22;18853;45.426;9.206;2023-06-14T12:32:09;28.30;48.80
32394;DHT22;18853;45.426;9.206;2023-06-14T12:34:35;28.30;48.80
32394;DHT22;18853;45.426;9.206;2023-06-14T12:37:01;28.30;48.20
32394;DHT22;18853;45.426;9.206;2023-06-14T12:39:27;28.40;48.70
32394;DHT22;18853;45.426;9.206;2023-06-14T12:41:53;28.40;48.60
32394;DHT22;18853;45.426;9.206;2023-06-14T12:44:20;28.40;48.50
32394;DHT22;18853;45.426;9.206;2023-06-14T12:46:45;28.40;48.90
32394;DHT22;18853;45.426;9.206;2023-06-14T12:49:12;28.50;49.10
32394;DHT22;18853;45.426;9.206;2023-06-14T12:51:38;28.50;49.20
32394;DHT22;18853;45.426;9.206;2023-06-14T12:54:06;28.50;48.20
32394;DHT22;18853;45.426;9.206;2023-06-14T12:56:32;28.40;48.10
32394;DHT22;18853;45.426;9.206;2023-06-14T12:58:58;28.50;48.20
32394;DHT22;18853;45.426;9.206;2023-06-14T13:01:24;28.50;48.10
32394;DHT22;18853;45.426;9.206;2023-06-14T13:03:50;28.60;47.60
32394;DHT22;18853;45.426;9.206;2023-06-14T13:06:17;28.70;48.70
32394;DHT22;18853;45.426;9.206;2023-06-14T13:08:43;28.80;48.10
32394;DHT22;18853;45.426;9.206;2023-06-14T13:11:09;28.90;47.90
32394;DHT22;18853;45.426;9.206;2023-06-14T13:13:34;28.90;48.20
32394;DHT22;18853;45.426;9.206;2023-06-14T13:16:00;28.80;48.50
32394;DHT22;18853;45.426;9.206;2023-06-14T13:18:26;28.80;49.00
32394;DHT22;18853;45.426;9.206;2023-06-14T13:20:52;28.90;48.00
32394;DHT22;18853;45.426;9.206;2023-06-14T13:23:17;29.00;47.50
32394;DHT22;18853;45.426;9.206;2023-06-14T13:25:43;29.10;47.10
32394;DHT22;18853;45.426;9.206;2023-06-14T13:28:09;29.10;46.90
32394;DHT22;18853;45.426;9.206;2023-06-14T13:30:35;29.10;46.10
32394;DHT22;18853;45.426;9.206;2023-06-14T13:33:01;29.20;45.80
32394;DHT22;18853;45.426;9.206;2023-06-14T13:35:27;29.20;45.50
32394;DHT22;18853;45.426;9.206;2023-06-14T13:37:53;29.30;46.00
32394;DHT22;18853;45.426;9.206;2023-06-14T13:40:18;29.50;46.30
32394;DHT22;18853;45.426;9.206;2023-06-14T13:42:45;29.60;46.50
32394;DHT22;18853;45.426;9.206;2023-06-14T13:45:12;29.70;46.30
32394;DHT22;18853;45.426;9.206;2023-06-14T13:47:38;29.70;45.50
32394;DHT22;18853;45.426;9.206;2023-06-14T13:50:05;29.80;44.90
32394;DHT22;18853;45.426;9.206;2023-06-14T13:52:31;29.80;45.00
32394;DHT22;18853;45.426;9.206;2023-06-14T13:54:57;29.90;44.20
32394;DHT22;18853;45.426;9.206;2023-06-14T13:57:22;30.00;44.20
32394;DHT22;18853;45.426;9.206;2023-06-14T13:59:48;30.00;44.20
32394;DHT22;18853;45.426;9.206;2023-06-14T14:02:14;29.90;43.80
32394;DHT22;18853;45.426;9.206;2023-06-14T14:04:40;29.80;43.60
32394;DHT22;18853;45.426;9.206;2023-06-14T14:07:06;29.70;44.10
32394;DHT22;18853;45.426;9.206;2023-06-14T14:09:33;29.60;44.30
32394;DHT22;18853;45.426;9.206;2023-06-14T14:12:00;29.70;45.40
32394;DHT22;18853;45.426;9.206;2023-06-14T14:14:27;29.70;44.70
32394;DHT22;18853;45.426;9.206;2023-06-14T14:16:53;29.60;43.90
32394;DHT22;18853;45.426;9.206;2023-06-14T14:19:23;29.60;44.80
32394;DHT22;18853;45.426;9.206;2023-06-14T14:21:49;29.60;44.80
32394;DHT22;18853;45.426;9.206;2023-06-14T14:24:15;29.60;44.50
32394;DHT22;18853;45.426;9.206;2023-06-14T14:26:41;29.60;44.40
32394;DHT22;18853;45.426;9.206;2023-06-14T14:29:07;29.50;44.20
32394;DHT22;18853;45.426;9.206;2023-06-14T14:31:34;29.60;44.30
32394;DHT22;18853;45.426;9.206;2023-06-14T14:33:59;29.70;43.90
32394;DHT22;18853;45.426;9.206;2023-06-14T14:36:25;29.80;43.80
32394;DHT22;18853;45.426;9.206;2023-06-14T14:38:51;29.80;43.90
32394;DHT22;18853;45.426;9.206;2023-06-14T14:41:19;29.90;44.00
32394;DHT22;18853;45.426;9.206;2023-06-14T14:43:45;29.90;44.00
32394;DHT22;18853;45.426;9.206;2023-06-14T14:46:11;29.90;44.20
32394;DHT22;18853;45.426;9.206;2023-06-14T14:48:37;29.90;44.20
32394;DHT22;18853;45.426;9.206;2023-06-14T14:51:02;29.80;43.00
32394;DHT22;18853;45.426;9.206;2023-06-14T14:53:28;29.80;43.40
32394;DHT22;18853;45.426;9.206;2023-06-14T14:55:54;29.80;43.20
32394;DHT22;18853;45.426;9.206;2023-06-14T14:58:20;29.80;43.00
32394;DHT22;18853;45.426;9.206;2023-06-14T15:00:46;29.90;43.40
32394;DHT22;18853;45.426;9.206;2023-06-14T15:03:13;30.00;43.40
32394;DHT22;18853;45.426;9.206;2023-06-14T15:05:39;30.20;43.50
32394;DHT22;18853;45.426;9.206;2023-06-14T15:08:05;30.40;43.70
32394;DHT22;18853;45.426;9.206;2023-06-14T15:10:40;30.50;42.90
32394;DHT22;18853;45.426;9.206;2023-06-14T15:13:07;30.70;42.40
32394;DHT22;18853;45.426;9.206;2023-06-14T15:15:36;30.90;42.20
32394;DHT22;18853;45.426;9.206;2023-06-14T15:18:03;30.90;41.90
32394;DHT22;18853;45.426;9.206;2023-06-14T15:20:29;31.10;41.50
32394;DHT22;18853;45.426;9.206;2023-06-14T15:22:55;31.10;41.30
32394;DHT22;18853;45.426;9.206;2023-06-14T15:25:29;31.10;41.00
32394;DHT22;18853;45.426;9.206;2023-06-14T15:27:55;31.20;40.70
32394;DHT22;18853;45.426;9.206;2023-06-14T15:30:21;31.30;40.50
32394;DHT22;18853;45.426;9.206;2023-06-14T15:32:48;31.30;40.60
32394;DHT22;18853;45.426;9.206;2023-06-14T15:35:16;31.30;41.00
32394;DHT22;18853;45.426;9.206;2023-06-14T15:37:42;31.30;41.20
32394;DHT22;18853;45.426;9.206;2023-06-14T15:40:08;31.30;41.00
32394;DHT22;18853;45.426;9.206;2023-06-14T15:42:34;31.40;41.40
32394;DHT22;18853;45.426;9.206;2023-06-14T15:45:00;31.30;41.50
32394;DHT22;18853;45.426;9.206;2023-06-14T15:47:26;31.20;41.70
32394;DHT22;18853;45.426;9.206;2023-06-14T15:49:51;31.10;41.30
32394;DHT22;18853;45.426;9.206;2023-06-14T15:52:17;31.00;41.40